sensor_id;sensor_type;location;lat;lon;timestamp;pressure;altitude;pressure_sealevel;temperature;humidity
59825;BME280;45703;50.898;6.054;2023-03-22T00:01:14;99693.78;;;11.83;82.51
59825;BME280;45703;50.898;6.054;2023-03-22T00:03:40;99694.19;;;11.75;82.65
59825;BME280;45703;50.898;6.054;2023-03-22T00:06:06;99690.09;;;11.72;83.12
59825;BME280;45703;50.898;6.054;2023-03-22T00:08:32;99677.94;;;11.65;82.04
59825;BME280;45703;50.898;6.054;2023-03-22T00:10:58;99670.41;;;11.62;82.69
59825;BME280;45703;50.898;6.054;2023-03-22T00:13:23;99661.91;;;11.65;82.45
59825;BME280;45703;50.898;6.054;2023-03-22T00:15:48;99673.91;;;11.62;82.41
59825;BME280;45703;50.898;6.054;2023-03-22T00:18:15;99667.41;;;11.58;82.41
59825;BME280;45703;50.898;6.054;2023-03-22T00:20:51;99656.03;;;11.51;82.04
59825;BME280;45703;50.898;6.054;2023-03-22T00:23:18;99656.53;;;11.48;83.00
59825;BME280;45703;50.898;6.054;2023-03-22T00:25:44;99647.59;;;11.43;82.88
59825;BME280;45703;50.898;6.054;2023-03-22T00:28:10;99656.41;;;11.43;82.98
59825;BME280;45703;50.898;6.054;2023-03-22T00:30:36;99653.66;;;11.39;83.14
59825;BME280;45703;50.898;6.054;2023-03-22T00:33:02;99648.88;;;11.41;83.28
59825;BME280;45703;50.898;6.054;2023-03-22T00:35:28;99645.53;;;11.34;83.12
59825;BME280;45703;50.898;6.054;2023-03-22T00:37:53;99647.16;;;11.35;83.57
59825;BME280;45703;50.898;6.054;2023-03-22T00:40:19;99638.34;;;11.34;83.36
59825;BME280;45703;50.898;6.054;2023-03-22T00:42:44;99636.38;;;11.30;85.29
59825;BME280;45703;50.898;6.054;2023-03-22T00:45:11;99644.31;;;11.25;84.58
59825;BME280;45703;50.898;6.054;2023-03-22T00:47:37;99639.78;;;11.25;84.52
59825;BME280;45703;50.898;6.054;2023-03-22T00:50:07;99634.09;;;11.22;83.57
59825;BME280;45703;50.898;6.054;2023-03-22T00:52:32;99630.59;;;11.21;83.84
59825;BME280;45703;50.898;6.054;2023-03-22T00:54:58;99622.75;;;11.15;83.67
59825;BME280;45703;50.898;6.054;2023-03-22T00:57:23;99629.72;;;11.16;84.33
59825;BME280;45703;50.898;6.054;2023-03-22T00:59:49;99626.47;;;11.14;84.63
59825;BME280;45703;50.898;6.054;2023-03-22T01:02:15;99619.50;;;11.13;84.93
59825;BME280;45703;50.898;6.054;2023-03-22T01:04:42;99620.78;;;11.10;85.40
59825;BME280;45703;50.898;6.054;2023-03-22T01:07:14;99616.00;;;11.12;84.62
59825;BME280;45703;50.898;6.054;2023-03-22T01:09:46;99602.00;;;11.05;84.51
59825;BME280;45703;50.898;6.054;2023-03-22T01:12:12;99605.91;;;11.14;85.38
59825;BME280;45703;50.898;6.054;2023-03-22T01:14:38;99601.88;;;11.12;85.16
59825;BME280;45703;50.898;6.054;2023-03-22T01:17:04;99605.59;;;11.11;84.98
59825;BME280;45703;50.898;6.054;2023-03-22T01:19:31;99594.06;;;11.10;85.41
59825;BME280;45703;50.898;6.054;2023-03-22T01:21:57;99603.72;;;11.11;85.35
59825;BME280;45703;50.898;6.054;2023-03-22T01:24:23;99595.78;;;11.16;85.65
59825;BME280;45703;50.898;6.054;2023-03-22T01:26:48;99588.59;;;11.17;84.48
59825;BME280;45703;50.898;6.054;2023-03-22T01:29:14;99585.94;;;11.17;85.01
59825;BME280;45703;50.898;6.054;2023-03-22T01:31:39;99583.97;;;11.12;85.03
59825;BME280;45703;50.898;6.054;2023-03-22T01:34:05;99588.50;;;11.12;86.11
59825;BME280;45703;50.898;6.054;2023-03-22T01:36:30;99576.13;;;11.06;85.31
59825;BME280;45703;50.898;6.054;2023-03-22T01:38:56;99576.13;;;11.06;85.26
59825;BME280;45703;50.898;6.054;2023-03-22T01:41:21;99575.63;;;11.09;86.09
59825;BME280;45703;50.898;6.054;2023-03-22T01:46:31;99564.00;;;11.15;85.25
59825;BME280;45703;50.898;6.054;2023-03-22T01:48:57;99564.78;;;11.15;84.99
59825;BME280;45703;50.898;6.054;2023-03-22T01:51:23;99567.78;;;11.19;84.74
59825;BME280;45703;50.898;6.054;2023-03-22T01:53:57;99559.69;;;11.14;84.54
59825;BME280;45703;50.898;6.054;2023-03-22T01:56:25;99549.00;;;11.14;85.63
59825;BME280;45703;50.898;6.054;2023-03-22T01:58:53;99549.56;;;11.16;86.03
59825;BME280;45703;50.898;6.054;2023-03-22T02:01:20;99546.34;;;11.14;85.42
59825;BME280;45703;50.898;6.054;2023-03-22T02:03:51;99543.09;;;11.12;84.86
59825;BME280;45703;50.898;6.054;2023-03-22T02:06:18;99536.13;;;11.11;85.50
59825;BME280;45703;50.898;6.054;2023-03-22T02:08:44;99530.72;;;11.06;85.84
59825;BME280;45703;50.898;6.054;2023-03-22T02:11:14;99526.41;;;11.05;85.07
59825;BME280;45703;50.898;6.054;2023-03-22T02:14:06;99529.19;;;11.10;85.52
59825;BME280;45703;50.898;6.054;2023-03-22T02:28:23;99495.78;;;10.96;85.21
59825;BME280;45703;50.898;6.054;2023-03-22T02:30:54;99492.56;;;10.94;85.74
59825;BME280;45703;50.898;6.054;2023-03-22T02:44:43;99499.34;;;10.85;86.04
59825;BME280;45703;50.898;6.054;2023-03-22T02:47:25;99499.03;;;10.81;85.96
59825;BME280;45703;50.898;6.054;2023-03-22T02:52:42;99500.66;;;10.82;85.97
59825;BME280;45703;50.898;6.054;2023-03-22T02:58:20;99498.22;;;10.81;85.89
59825;BME280;45703;50.898;6.054;2023-03-22T03:00:49;99499.84;;;10.82;86.71
59825;BME280;45703;50.898;6.054;2023-03-22T03:03:18;99500.31;;;10.79;87.31
59825;BME280;45703;50.898;6.054;2023-03-22T03:05:48;99490.59;;;10.73;86.86
59825;BME280;45703;50.898;6.054;2023-03-22T03:08:18;99498.38;;;10.74;86.30
59825;BME280;45703;50.898;6.054;2023-03-22T03:10:45;99490.13;;;10.76;86.80
59825;BME280;45703;50.898;6.054;2023-03-22T03:13:13;99482.50;;;10.68;86.58
59825;BME280;45703;50.898;6.054;2023-03-22T03:15:41;99486.97;;;10.79;86.35
59825;BME280;45703;50.898;6.054;2023-03-22T03:33:43;99477.72;;;10.70;86.02
59825;BME280;45703;50.898;6.054;2023-03-22T03:36:12;99478.78;;;10.69;86.59
59825;BME280;45703;50.898;6.054;2023-03-22T03:38:43;99473.94;;;10.66;86.75
59825;BME280;45703;50.898;6.054;2023-03-22T03:41:14;99479.25;;;10.66;86.87
59825;BME280;45703;50.898;6.054;2023-03-22T03:43:41;99477.56;;;10.60;86.76
59825;BME280;45703;50.898;6.054;2023-03-22T03:46:08;99477.63;;;10.65;86.58
59825;BME280;45703;50.898;6.054;2023-03-22T03:48:34;99478.44;;;10.65;87.10
59825;BME280;45703;50.898;6.054;2023-03-22T03:51:01;99467.75;;;10.65;86.68
59825;BME280;45703;50.898;6.054;2023-03-22T03:53:28;99466.63;;;10.61;88.01
59825;BME280;45703;50.898;6.054;2023-03-22T03:55:54;99458.88;;;10.60;87.17
59825;BME280;45703;50.898;6.054;2023-03-22T03:58:19;99470.69;;;10.64;87.42
59825;BME280;45703;50.898;6.054;2023-03-22T04:00:45;99465.34;;;10.64;87.00
59825;BME280;45703;50.898;6.054;2023-03-22T04:03:11;99463.34;;;10.71;86.94
59825;BME280;45703;50.898;6.054;2023-03-22T04:05:37;99456.38;;;10.70;87.21
59825;BME280;45703;50.898;6.054;2023-03-22T04:08:03;99471.25;;;10.66;86.79
59825;BME280;45703;50.898;6.054;2023-03-22T04:10:28;99462.59;;;10.59;87.23
59825;BME280;45703;50.898;6.054;2023-03-22T04:12:53;99457.91;;;10.66;87.00
59825;BME280;45703;50.898;6.054;2023-03-22T04:15:19;99465.34;;;10.64;87.10
59825;BME280;45703;50.898;6.054;2023-03-22T04:17:44;99461.28;;;10.61;86.57
59825;BME280;45703;50.898;6.054;2023-03-22T04:20:13;99458.13;;;10.64;87.09
59825;BME280;45703;50.898;6.054;2023-03-22T04:22:39;99454.66;;;10.64;87.71
59825;BME280;45703;50.898;6.054;2023-03-22T04:25:07;99437.03;;;10.63;87.13
59825;BME280;45703;50.898;6.054;2023-03-22T04:27:36;99448.03;;;10.66;87.62
59825;BME280;45703;50.898;6.054;2023-03-22T04:30:03;99450.28;;;10.58;88.09
59825;BME280;45703;50.898;6.054;2023-03-22T04:32:29;99452.13;;;10.57;87.09
59825;BME280;45703;50.898;6.054;2023-03-22T04:34:54;99450.28;;;10.58;87.63
59825;BME280;45703;50.898;6.054;2023-03-22T04:37:20;99463.06;;;10.56;87.15
59825;BME280;45703;50.898;6.054;2023-03-22T04:39:48;99449.81;;;10.61;87.21
59825;BME280;45703;50.898;6.054;2023-03-22T04:42:14;99443.25;;;10.52;87.94
59825;BME280;45703;50.898;6.054;2023-03-22T04:44:39;99450.28;;;10.58;87.61
59825;BME280;45703;50.898;6.054;2023-03-22T04:47:05;99452.88;;;10.53;87.58
59825;BME280;45703;50.898;6.054;2023-03-22T04:49:30;99448.69;;;10.57;87.49
59825;BME280;45703;50.898;6.054;2023-03-22T04:51:56;99447.06;;;10.56;87.98
59825;BME280;45703;50.898;6.054;2023-03-22T04:54:22;99443.81;;;10.54;88.36
59825;BME280;45703;50.898;6.054;2023-03-22T04:56:48;99435.72;;;10.49;88.77
59825;BME280;45703;50.898;6.054;2023-03-22T04:59:14;99445.91;;;10.52;87.79
59825;BME280;45703;50.898;6.054;2023-03-22T05:01:42;99454.66;;;10.64;88.42
59825;BME280;45703;50.898;6.054;2023-03-22T05:04:08;99455.16;;;10.61;88.14
59825;BME280;45703;50.898;6.054;2023-03-22T05:06:33;99450.47;;;10.68;88.08
59825;BME280;45703;50.898;6.054;2023-03-22T05:08:59;99450.56;;;10.73;87.22
59825;BME280;45703;50.898;6.054;2023-03-22T05:11:25;99453.78;;;10.75;87.43
59825;BME280;45703;50.898;6.054;2023-03-22T05:13:55;99455.66;;;10.74;87.88
59825;BME280;45703;50.898;6.054;2023-03-22T05:16:22;99446.75;;;10.69;87.88
59825;BME280;45703;50.898;6.054;2023-03-22T05:18:47;99445.03;;;10.63;87.86
59825;BME280;45703;50.898;6.054;2023-03-22T05:21:16;99459.84;;;10.70;88.15
59825;BME280;45703;50.898;6.054;2023-03-22T05:23:42;99459.13;;;10.75;87.44
59825;BME280;45703;50.898;6.054;2023-03-22T05:26:09;99461.78;;;10.75;87.41
59825;BME280;45703;50.898;6.054;2023-03-22T05:28:35;99447.88;;;10.73;87.55
59825;BME280;45703;50.898;6.054;2023-03-22T05:31:02;99458.66;;;10.78;87.38
59825;BME280;45703;50.898;6.054;2023-03-22T05:33:28;99454.34;;;10.77;87.13
59825;BME280;45703;50.898;6.054;2023-03-22T05:35:54;99450.56;;;10.73;87.39
59825;BME280;45703;50.898;6.054;2023-03-22T05:38:20;99444.81;;;10.81;87.08
59825;BME280;45703;50.898;6.054;2023-03-22T05:40:47;99454.69;;;10.80;87.24
59825;BME280;45703;50.898;6.054;2023-03-22T05:43:13;99441.00;;;10.77;86.83
59825;BME280;45703;50.898;6.054;2023-03-22T05:45:38;99450.78;;;10.71;87.15
59825;BME280;45703;50.898;6.054;2023-03-22T05:48:05;99442.06;;;10.76;86.80
59825;BME280;45703;50.898;6.054;2023-03-22T05:50:30;99445.63;;;10.81;86.79
59825;BME280;45703;50.898;6.054;2023-03-22T05:52:56;99437.22;;;10.73;86.90
59825;BME280;45703;50.898;6.054;2023-03-22T05:55:25;99459.22;;;10.80;86.49
59825;BME280;45703;50.898;6.054;2023-03-22T05:57:50;99447.41;;;10.76;86.70
59825;BME280;45703;50.898;6.054;2023-03-22T06:00:19;99448.53;;;10.80;86.29
59825;BME280;45703;50.898;6.054;2023-03-22T06:02:46;99454.94;;;10.79;86.39
59825;BME280;45703;50.898;6.054;2023-03-22T06:05:13;99464.63;;;10.85;86.47
59825;BME280;45703;50.898;6.054;2023-03-22T06:07:39;99459.06;;;10.86;86.24
59825;BME280;45703;50.898;6.054;2023-03-22T06:10:06;99455.50;;;10.81;86.06
59825;BME280;45703;50.898;6.054;2023-03-22T06:12:32;99457.09;;;10.82;86.12
59825;BME280;45703;50.898;6.054;2023-03-22T06:14:58;99458.16;;;10.81;86.25
59825;BME280;45703;50.898;6.054;2023-03-22T06:17:24;99439.97;;;10.78;86.02
59825;BME280;45703;50.898;6.054;2023-03-22T06:19:50;99441.66;;;10.84;86.23
59825;BME280;45703;50.898;6.054;2023-03-22T06:22:16;99448.38;;;10.86;85.91
59825;BME280;45703;50.898;6.054;2023-03-22T06:24:41;99439.06;;;10.89;85.80
59825;BME280;45703;50.898;6.054;2023-03-22T06:27:07;99435.34;;;10.90;85.41
59825;BME280;45703;50.898;6.054;2023-03-22T06:29:33;99438.59;;;10.92;85.41
59825;BME280;45703;50.898;6.054;2023-03-22T06:31:59;99450.09;;;10.92;85.31
59825;BME280;45703;50.898;6.054;2023-03-22T06:34:25;99447.28;;;10.99;85.02
59825;BME280;45703;50.898;6.054;2023-03-22T06:36:51;99448.41;;;11.03;84.79
59825;BME280;45703;50.898;6.054;2023-03-22T06:39:18;99435.34;;;11.06;84.17
59825;BME280;45703;50.898;6.054;2023-03-22T06:41:43;99434.47;;;11.01;84.51
59825;BME280;45703;50.898;6.054;2023-03-22T06:44:12;99436.66;;;11.04;84.59
59825;BME280;45703;50.898;6.054;2023-03-22T06:46:37;99430.91;;;11.12;84.10
59825;BME280;45703;50.898;6.054;2023-03-22T06:49:06;99432.59;;;11.18;83.65
59825;BME280;45703;50.898;6.054;2023-03-22T06:51:32;99437.69;;;11.19;83.57
59825;BME280;45703;50.898;6.054;2023-03-22T06:53:57;99437.38;;;11.16;83.48
59825;BME280;45703;50.898;6.054;2023-03-22T06:56:23;99424.59;;;11.18;83.23
59825;BME280;45703;50.898;6.054;2023-03-22T06:58:48;99430.00;;;11.23;82.77
59825;BME280;45703;50.898;6.054;2023-03-22T07:01:16;99442.22;;;11.19;82.95
59825;BME280;45703;50.898;6.054;2023-03-22T07:03:42;99447.09;;;11.22;82.66
59825;BME280;45703;50.898;6.054;2023-03-22T07:06:07;99444.97;;;11.24;82.54
59825;BME280;45703;50.898;6.054;2023-03-22T07:08:34;99439.88;;;11.22;82.39
59825;BME280;45703;50.898;6.054;2023-03-22T07:11:02;99438.34;;;11.26;82.17
59825;BME280;45703;50.898;6.054;2023-03-22T07:13:28;99445.06;;;11.29;81.87
59825;BME280;45703;50.898;6.054;2023-03-22T07:16:00;99440.53;;;11.29;82.17
59825;BME280;45703;50.898;6.054;2023-03-22T07:18:27;99447.22;;;11.32;82.16
59825;BME280;45703;50.898;6.054;2023-03-22T07:20:52;99450.41;;;11.29;82.09
59825;BME280;45703;50.898;6.054;2023-03-22T07:23:18;99456.06;;;11.32;82.25
59825;BME280;45703;50.898;6.054;2023-03-22T07:25:44;99447.00;;;11.33;82.02
59825;BME280;45703;50.898;6.054;2023-03-22T07:28:10;99454.84;;;11.40;81.38
59825;BME280;45703;50.898;6.054;2023-03-22T07:30:36;99439.06;;;11.38;80.81
59825;BME280;45703;50.898;6.054;2023-03-22T07:33:06;99440.41;;;11.41;80.71
59825;BME280;45703;50.898;6.054;2023-03-22T07:35:33;99459.69;;;11.43;80.87
59825;BME280;45703;50.898;6.054;2023-03-22T07:38:00;99431.84;;;11.39;80.53
59825;BME280;45703;50.898;6.054;2023-03-22T07:40:25;99440.75;;;11.44;80.32
59825;BME280;45703;50.898;6.054;2023-03-22T07:42:52;99445.25;;;11.43;80.20
59825;BME280;45703;50.898;6.054;2023-03-22T07:45:18;99455.97;;;11.43;80.40
59825;BME280;45703;50.898;6.054;2023-03-22T07:47:44;99447.44;;;11.46;79.67
59825;BME280;45703;50.898;6.054;2023-03-22T07:50:10;99459.75;;;11.47;79.98
59825;BME280;45703;50.898;6.054;2023-03-22T07:52:38;99432.47;;;11.45;80.48
59825;BME280;45703;50.898;6.054;2023-03-22T07:55:03;99449.16;;;11.52;80.13
59825;BME280;45703;50.898;6.054;2023-03-22T07:57:29;99455.06;;;11.54;80.22
59825;BME280;45703;50.898;6.054;2023-03-22T07:59:54;99461.63;;;11.63;79.32
59825;BME280;45703;50.898;6.054;2023-03-22T08:02:21;99466.78;;;11.70;79.25
59825;BME280;45703;50.898;6.054;2023-03-22T08:04:46;99463.88;;;11.71;78.86
59825;BME280;45703;50.898;6.054;2023-03-22T08:07:13;99460.66;;;11.69;78.39
59825;BME280;45703;50.898;6.054;2023-03-22T08:09:39;99468.19;;;11.72;78.13
59825;BME280;45703;50.898;6.054;2023-03-22T08:12:05;99473.19;;;11.69;78.49
59825;BME280;45703;50.898;6.054;2023-03-22T08:14:31;99457.91;;;11.64;78.26
59825;BME280;45703;50.898;6.054;2023-03-22T08:16:56;99461.16;;;11.66;78.66
59825;BME280;45703;50.898;6.054;2023-03-22T08:19:22;99462.28;;;11.70;78.65
59825;BME280;45703;50.898;6.054;2023-03-22T08:21:47;99453.13;;;11.66;78.06
59825;BME280;45703;50.898;6.054;2023-03-22T08:24:13;99455.94;;;11.76;77.59
59825;BME280;45703;50.898;6.054;2023-03-22T08:26:38;99460.22;;;11.77;77.30
59825;BME280;45703;50.898;6.054;2023-03-22T08:29:03;99467.25;;;11.83;77.01
59825;BME280;45703;50.898;6.054;2023-03-22T08:31:29;99471.03;;;11.87;76.94
59825;BME280;45703;50.898;6.054;2023-03-22T08:33:54;99471.09;;;11.92;76.59
59825;BME280;45703;50.898;6.054;2023-03-22T08:36:20;99472.22;;;11.96;76.24
59825;BME280;45703;50.898;6.054;2023-03-22T08:38:49;99464.28;;;12.01;76.43
59825;BME280;45703;50.898;6.054;2023-03-22T08:41:15;99454.72;;;12.05;75.97
59825;BME280;45703;50.898;6.054;2023-03-22T08:43:41;99461.19;;;12.09;75.56
59825;BME280;45703;50.898;6.054;2023-03-22T08:46:07;99458.06;;;12.17;75.22
59825;BME280;45703;50.898;6.054;2023-03-22T08:48:33;99465.31;;;12.22;74.87
59825;BME280;45703;50.898;6.054;2023-03-22T08:51:00;99460.59;;;12.29;73.92
59825;BME280;45703;50.898;6.054;2023-03-22T08:53:26;99439.19;;;12.29;74.22
59825;BME280;45703;50.898;6.054;2023-03-22T08:55:51;99443.00;;;12.33;74.49
59825;BME280;45703;50.898;6.054;2023-03-22T08:58:17;99458.53;;;12.36;73.93
59825;BME280;45703;50.898;6.054;2023-03-22T09:00:45;99454.81;;;12.37;73.94
59825;BME280;45703;50.898;6.054;2023-03-22T09:03:10;99458.28;;;12.37;72.94
59825;BME280;45703;50.898;6.054;2023-03-22T09:05:35;99481.63;;;12.42;73.26
59825;BME280;45703;50.898;6.054;2023-03-22T09:08:01;99468.47;;;12.40;72.80
59825;BME280;45703;50.898;6.054;2023-03-22T09:10:27;99468.28;;;12.47;73.24
59825;BME280;45703;50.898;6.054;2023-03-22T09:12:53;99452.03;;;12.53;72.80
59825;BME280;45703;50.898;6.054;2023-03-22T09:15:18;99446.97;;;12.57;72.68
59825;BME280;45703;50.898;6.054;2023-03-22T09:17:43;99452.69;;;12.65;72.30
59825;BME280;45703;50.898;6.054;2023-03-22T09:20:09;99442.56;;;12.72;72.33
59825;BME280;45703;50.898;6.054;2023-03-22T09:22:35;99446.41;;;12.81;71.80
59825;BME280;45703;50.898;6.054;2023-03-22T09:25:00;99430.84;;;12.78;70.60
59825;BME280;45703;50.898;6.054;2023-03-22T09:27:26;99449.09;;;12.81;70.65
59825;BME280;45703;50.898;6.054;2023-03-22T09:29:51;99439.97;;;12.82;71.35
59825;BME280;45703;50.898;6.054;2023-03-22T09:32:17;99445.09;;;12.84;70.77
59825;BME280;45703;50.898;6.054;2023-03-22T09:34:43;99446.47;;;12.91;69.50
59825;BME280;45703;50.898;6.054;2023-03-22T09:37:08;99432.91;;;12.98;69.99
59825;BME280;45703;50.898;6.054;2023-03-22T09:39:38;99421.47;;;13.07;69.94
59825;BME280;45703;50.898;6.054;2023-03-22T09:42:06;99410.84;;;13.17;69.77
59825;BME280;45703;50.898;6.054;2023-03-22T09:44:42;99417.34;;;13.31;69.03
59825;BME280;45703;50.898;6.054;2023-03-22T09:47:15;99413.66;;;13.42;69.99
59825;BME280;45703;50.898;6.054;2023-03-22T09:49:45;99426.09;;;13.53;68.52
59825;BME280;45703;50.898;6.054;2023-03-22T09:52:14;99423.94;;;13.55;68.21
59825;BME280;45703;50.898;6.054;2023-03-22T09:54:41;99423.13;;;13.54;67.28
59825;BME280;45703;50.898;6.054;2023-03-22T09:59:57;99421.00;;;13.56;68.66
59825;BME280;45703;50.898;6.054;2023-03-22T10:08:01;99432.84;;;13.65;68.72
59825;BME280;45703;50.898;6.054;2023-03-22T10:10:29;99426.13;;;13.63;68.29
59825;BME280;45703;50.898;6.054;2023-03-22T10:13:11;99437.41;;;13.65;67.05
59825;BME280;45703;50.898;6.054;2023-03-22T10:15:45;99433.13;;;13.64;67.38
59825;BME280;45703;50.898;6.054;2023-03-22T10:18:18;99423.16;;;13.59;65.73
59825;BME280;45703;50.898;6.054;2023-03-22T10:21:00;99418.06;;;13.58;65.65
59825;BME280;45703;50.898;6.054;2023-03-22T10:23:56;99430.09;;;13.55;65.69
59825;BME280;45703;50.898;6.054;2023-03-22T10:26:34;99419.69;;;13.59;66.37
59825;BME280;45703;50.898;6.054;2023-03-22T10:31:33;99427.19;;;13.62;65.74
59825;BME280;45703;50.898;6.054;2023-03-22T10:34:11;99419.19;;;13.67;65.96
59825;BME280;45703;50.898;6.054;2023-03-22T10:36:41;99421.03;;;13.66;64.53
59825;BME280;45703;50.898;6.054;2023-03-22T10:39:27;99418.13;;;13.68;64.77
59825;BME280;45703;50.898;6.054;2023-03-22T10:41:55;99414.34;;;13.64;65.61
59825;BME280;45703;50.898;6.054;2023-03-22T10:44:23;99410.03;;;13.63;64.98
59825;BME280;45703;50.898;6.054;2023-03-22T10:46:51;99415.69;;;13.66;65.31
59825;BME280;45703;50.898;6.054;2023-03-22T10:49:31;99411.41;;;13.70;66.85
59825;BME280;45703;50.898;6.054;2023-03-22T10:52:02;99428.31;;;13.71;65.88
59825;BME280;45703;50.898;6.054;2023-03-22T10:54:29;99425.09;;;13.69;65.42
59825;BME280;45703;50.898;6.054;2023-03-22T10:56:55;99409.00;;;13.69;65.65
59825;BME280;45703;50.898;6.054;2023-03-22T10:59:44;99428.34;;;13.76;66.16
59825;BME280;45703;50.898;6.054;2023-03-22T11:02:21;99423.81;;;13.81;66.53
59825;BME280;45703;50.898;6.054;2023-03-22T11:04:50;99419.25;;;13.82;65.92
59825;BME280;45703;50.898;6.054;2023-03-22T11:07:28;99421.94;;;13.87;66.40
59825;BME280;45703;50.898;6.054;2023-03-22T11:12:35;99411.78;;;13.99;66.65
59825;BME280;45703;50.898;6.054;2023-03-22T11:15:02;99418.81;;;14.05;66.51
59825;BME280;45703;50.898;6.054;2023-03-22T11:17:29;99412.41;;;14.11;65.97
59825;BME280;45703;50.898;6.054;2023-03-22T11:19:59;99406.25;;;14.15;66.05
59825;BME280;45703;50.898;6.054;2023-03-22T11:22:33;99404.13;;;14.22;65.25
59825;BME280;45703;50.898;6.054;2023-03-22T11:25:01;99401.19;;;14.29;65.92
59825;BME280;45703;50.898;6.054;2023-03-22T11:27:32;99408.72;;;14.37;65.18
59825;BME280;45703;50.898;6.054;2023-03-22T11:30:07;99409.81;;;14.36;65.42
59825;BME280;45703;50.898;6.054;2023-03-22T11:32:41;99408.19;;;14.35;65.33
59825;BME280;45703;50.898;6.054;2023-03-22T11:35:20;99407.66;;;14.33;65.60
59825;BME280;45703;50.898;6.054;2023-03-22T11:37:50;99408.44;;;14.28;65.95
59825;BME280;45703;50.898;6.054;2023-03-22T11:40:22;99406.25;;;14.20;65.07
59825;BME280;45703;50.898;6.054;2023-03-22T11:42:52;99399.53;;;14.13;65.55
59825;BME280;45703;50.898;6.054;2023-03-22T11:45:27;99397.91;;;14.12;65.83
59825;BME280;45703;50.898;6.054;2023-03-22T11:47:59;99397.94;;;14.17;66.21
59825;BME280;45703;50.898;6.054;2023-03-22T11:50:30;99398.50;;;14.24;66.14
59825;BME280;45703;50.898;6.054;2023-03-22T11:52:56;99383.47;;;14.28;65.81
59825;BME280;45703;50.898;6.054;2023-03-22T11:55:28;99397.97;;;14.32;65.87
59825;BME280;45703;50.898;6.054;2023-03-22T11:57:56;99384.56;;;14.32;65.40
59825;BME280;45703;50.898;6.054;2023-03-22T12:00:29;99384.31;;;14.33;66.73
59825;BME280;45703;50.898;6.054;2023-03-22T12:03:23;99378.13;;;14.33;66.19
59825;BME280;45703;50.898;6.054;2023-03-22T12:05:51;99379.97;;;14.27;65.99
59825;BME280;45703;50.898;6.054;2023-03-22T12:08:26;99380.50;;;14.19;66.17
59825;BME280;45703;50.898;6.054;2023-03-22T12:11:00;99375.63;;;14.11;65.39
59825;BME280;45703;50.898;6.054;2023-03-22T12:16:01;99387.69;;;14.09;66.38
59825;BME280;45703;50.898;6.054;2023-03-22T12:21:11;99379.09;;;14.07;66.15
59825;BME280;45703;50.898;6.054;2023-03-22T12:23:36;99393.06;;;14.09;66.31
59825;BME280;45703;50.898;6.054;2023-03-22T12:28:55;99384.47;;;14.07;66.05
59825;BME280;45703;50.898;6.054;2023-03-22T12:33:55;99376.44;;;14.12;65.65
59825;BME280;45703;50.898;6.054;2023-03-22T12:36:28;99359.50;;;14.11;66.50
59825;BME280;45703;50.898;6.054;2023-03-22T12:38:59;99369.22;;;14.22;66.41
59825;BME280;45703;50.898;6.054;2023-03-22T12:41:36;99359.31;;;14.28;65.36
59825;BME280;45703;50.898;6.054;2023-03-22T12:44:10;99368.97;;;14.34;66.57
59825;BME280;45703;50.898;6.054;2023-03-22T12:51:50;99364.69;;;14.52;65.17
59825;BME280;45703;50.898;6.054;2023-03-22T12:54:19;99368.50;;;14.56;64.62
59825;BME280;45703;50.898;6.054;2023-03-22T12:56:48;99352.38;;;14.61;65.49
59825;BME280;45703;50.898;6.054;2023-03-22T12:59:17;99354.53;;;14.64;65.16
59825;BME280;45703;50.898;6.054;2023-03-22T13:01:53;99350.22;;;14.68;65.24
59825;BME280;45703;50.898;6.054;2023-03-22T13:09:42;99365.53;;;14.68;64.67
59825;BME280;45703;50.898;6.054;2023-03-22T13:30:29;99350.19;;;14.43;64.82
59825;BME280;45703;50.898;6.054;2023-03-22T13:32:59;99343.50;;;14.36;65.52
59825;BME280;45703;50.898;6.054;2023-03-22T13:38:16;99345.63;;;14.29;65.49
59825;BME280;45703;50.898;6.054;2023-03-22T13:43:50;99335.13;;;14.18;66.32
59825;BME280;45703;50.898;6.054;2023-03-22T14:02:31;99324.91;;;14.10;67.26
59825;BME280;45703;50.898;6.054;2023-03-22T14:04:43;99334.03;;;14.09;67.24
59825;BME280;45703;50.898;6.054;2023-03-22T14:07:32;99331.34;;;14.09;67.45
59825;BME280;45703;50.898;6.054;2023-03-22T14:10:04;99320.31;;;14.10;68.01
59825;BME280;45703;50.898;6.054;2023-03-22T14:12:50;99314.41;;;14.13;67.21
59825;BME280;45703;50.898;6.054;2023-03-22T14:15:40;99335.63;;;14.10;67.51
59825;BME280;45703;50.898;6.054;2023-03-22T14:21:20;99315.22;;;14.04;67.86
59825;BME280;45703;50.898;6.054;2023-03-22T14:23:50;99328.34;;;14.00;67.95
59825;BME280;45703;50.898;6.054;2023-03-22T14:26:27;99321.09;;;14.01;67.92
59825;BME280;45703;50.898;6.054;2023-03-22T14:29:08;99319.22;;;13.96;68.46
59825;BME280;45703;50.898;6.054;2023-03-22T14:31:33;99325.13;;;13.93;68.20
59825;BME280;45703;50.898;6.054;2023-03-22T14:34:05;99324.84;;;13.95;68.59
59825;BME280;45703;50.898;6.054;2023-03-22T14:36:35;99315.72;;;13.91;68.34
59825;BME280;45703;50.898;6.054;2023-03-22T14:39:11;99321.38;;;13.94;68.41
59825;BME280;45703;50.898;6.054;2023-03-22T14:41:55;99318.41;;;13.91;68.72
59825;BME280;45703;50.898;6.054;2023-03-22T14:44:21;99310.34;;;13.91;68.46
59825;BME280;45703;50.898;6.054;2023-03-22T14:46:46;99304.72;;;13.87;68.96
59825;BME280;45703;50.898;6.054;2023-03-22T14:49:15;99316.00;;;13.94;68.80
59825;BME280;45703;50.898;6.054;2023-03-22T14:51:43;99319.75;;;13.98;68.17
59825;BME280;45703;50.898;6.054;2023-03-22T14:54:16;99304.44;;;13.94;68.74
59825;BME280;45703;50.898;6.054;2023-03-22T14:56:43;99315.72;;;14.01;68.77
59825;BME280;45703;50.898;6.054;2023-03-22T14:59:12;99303.91;;;14.02;68.85
59825;BME280;45703;50.898;6.054;2023-03-22T15:01:51;99305.00;;;14.01;68.81
59825;BME280;45703;50.898;6.054;2023-03-22T15:04:20;99292.66;;;14.00;68.81
59825;BME280;45703;50.898;6.054;2023-03-22T15:06:48;99294.53;;;14.04;68.78
59825;BME280;45703;50.898;6.054;2023-03-22T15:09:19;99288.88;;;14.01;69.10
59825;BME280;45703;50.898;6.054;2023-03-22T15:11:46;99292.13;;;14.03;69.06